createdAt,value
2023-05-01T00:01:42.385Z,100932.60
2023-05-01T00:04:10.496Z,100928.60
2023-05-01T00:06:38.675Z,100931.60
2023-05-01T00:09:07.214Z,100931.00
2023-05-01T00:11:37.453Z,100927.40
2023-05-01T00:14:05.512Z,100925.80
2023-05-01T00:16:33.346Z,100919.40
2023-05-01T00:19:01.252Z,100920.00
2023-05-01T00:21:29.128Z,100919.60
2023-05-01T00:23:57.479Z,100919.40
2023-05-01T00:26:29.853Z,100916.00
2023-05-01T00:28:58.464Z,100914.00
2023-05-01T00:31:26.428Z,100912.40
2023-05-01T00:33:54.765Z,100907.40
2023-05-01T00:36:22.672Z,100903.40
2023-05-01T00:38:50.432Z,100901.00
2023-05-01T00:41:18.277Z,100899.80
2023-05-01T00:43:46.259Z,100896.00
2023-05-01T00:46:14.180Z,100891.60
2023-05-01T00:48:42.605Z,100884.20
2023-05-01T00:51:12.987Z,100886.00
2023-05-01T00:53:42.103Z,100879.40
2023-05-01T00:56:11.671Z,100883.80
2023-05-01T00:58:40.688Z,100879.40
2023-05-01T01:01:10.050Z,100881.00
2023-05-01T01:03:38.277Z,100878.40
2023-05-01T01:06:31.482Z,100873.40
2023-05-01T01:09:37.610Z,100868.00
2023-05-01T01:12:53.613Z,100861.60
2023-05-01T01:15:28.466Z,100855.80
2023-05-01T01:18:33.139Z,100858.40
2023-05-01T01:21:14.733Z,100854.20
2023-05-01T01:24:27.124Z,100848.00
2023-05-01T01:26:58.607Z,100845.00
2023-05-01T01:30:04.984Z,100830.20
2023-05-01T01:33:06.859Z,100828.20
2023-05-01T01:35:39.950Z,100828.20
2023-05-01T01:38:24.953Z,100828.40
2023-05-01T01:41:07.385Z,100829.80
2023-05-01T01:43:43.861Z,100825.40
2023-05-01T01:46:12.146Z,100823.00
2023-05-01T01:48:43.944Z,100820.00
2023-05-01T01:51:19.244Z,100813.80
2023-05-01T01:53:53.789Z,100804.60
2023-05-01T01:56:22.931Z,100809.80
2023-05-01T01:58:53.708Z,100804.00
2023-05-01T02:01:24.790Z,100803.00
2023-05-01T02:03:54.052Z,100805.20
2023-05-01T02:06:24.498Z,100798.40
2023-05-01T02:08:54.162Z,100798.80
2023-05-01T02:11:24.294Z,100790.40
2023-05-01T02:13:55.077Z,100792.60
2023-05-01T02:16:25.641Z,100792.00
2023-05-01T02:18:56.038Z,100791.40
2023-05-01T02:21:26.342Z,100793.00
2023-05-01T02:23:55.120Z,100795.60
2023-05-01T02:26:28.882Z,100790.60
2023-05-01T02:28:56.871Z,100794.60
2023-05-01T02:31:24.830Z,100786.60
2023-05-01T02:33:54.112Z,100787.20
2023-05-01T02:36:21.956Z,100790.60
2023-05-01T02:38:51.781Z,100790.40
2023-05-01T02:41:22.619Z,100786.60
2023-05-01T02:44:04.955Z,100784.20
2023-05-01T02:46:37.193Z,100784.80
2023-05-01T02:49:07.146Z,100787.00
2023-05-01T02:51:36.832Z,100786.20
2023-05-01T02:54:05.522Z,100784.40
2023-05-01T02:56:33.730Z,100786.60
2023-05-01T02:59:02.005Z,100786.40
2023-05-01T03:01:29.957Z,100783.20
2023-05-01T03:03:58.299Z,100777.20
2023-05-01T03:06:29.107Z,100773.40
2023-05-01T03:08:57.075Z,100768.40
2023-05-01T03:11:24.846Z,100766.80
2023-05-01T03:13:52.734Z,100770.40
2023-05-01T03:16:20.636Z,100769.60
2023-05-01T03:18:48.686Z,100769.00
2023-05-01T03:21:18.279Z,100765.00
2023-05-01T03:23:46.991Z,100767.60
2023-05-01T03:26:15.169Z,100772.80
2023-05-01T03:28:43.032Z,100766.60
2023-05-01T03:31:11.044Z,100771.60
2023-05-01T03:33:40.186Z,100765.20
2023-05-01T03:36:11.335Z,100770.60
2023-05-01T03:38:39.507Z,100770.60
2023-05-01T03:41:10.552Z,100767.00
2023-05-01T03:43:56.556Z,100770.80
2023-05-01T03:46:36.815Z,100773.00
2023-05-01T03:49:05.459Z,100768.80
2023-05-01T03:51:36.831Z,100769.40
2023-05-01T03:54:04.630Z,100763.40
2023-05-01T03:56:40.447Z,100772.40
2023-05-01T03:59:08.268Z,100776.60
2023-05-01T04:01:36.448Z,100780.40
2023-05-01T04:04:04.617Z,100777.40
2023-05-01T04:06:32.648Z,100777.80
2023-05-01T04:09:01.756Z,100780.40
2023-05-01T04:11:29.607Z,100778.20
2023-05-01T04:13:57.375Z,100771.80
2023-05-01T04:16:25.320Z,100765.40
2023-05-01T04:18:53.276Z,100758.20
2023-05-01T04:21:21.223Z,100762.20
2023-05-01T04:23:51.347Z,100759.20
2023-05-01T04:26:19.275Z,100754.00
2023-05-01T04:28:47.047Z,100753.60
2023-05-01T04:31:15.996Z,100748.40
2023-05-01T04:33:44.003Z,100749.80
2023-05-01T04:36:12.312Z,100751.00
2023-05-01T04:38:40.162Z,100753.80
2023-05-01T04:41:07.990Z,100755.80
2023-05-01T04:43:36.234Z,100754.80
2023-05-01T04:46:04.856Z,100759.00
2023-05-01T04:48:33.780Z,100755.00
2023-05-01T04:51:03.690Z,100762.20
2023-05-01T04:53:33.512Z,100762.80
2023-05-01T04:56:02.307Z,100763.00
2023-05-01T04:58:31.219Z,100770.20
2023-05-01T05:01:03.202Z,100769.40
2023-05-01T05:03:31.229Z,100769.80
2023-05-01T05:05:59.394Z,100776.60
2023-05-01T05:08:27.520Z,100780.80
2023-05-01T05:11:01.623Z,100779.20
2023-05-01T05:13:38.633Z,100785.60
2023-05-01T05:16:12.102Z,100772.20
2023-05-01T05:18:39.984Z,100771.20
2023-05-01T05:21:08.968Z,100772.40
2023-05-01T05:23:37.223Z,100769.60
2023-05-01T05:26:05.766Z,100767.60
2023-05-01T05:28:33.728Z,100768.80
2023-05-01T05:31:01.667Z,100772.40
2023-05-01T05:33:30.231Z,100773.80
2023-05-01T05:36:00.147Z,100772.60
2023-05-01T05:38:31.501Z,100773.20
2023-05-01T05:41:01.064Z,100774.00
2023-05-01T05:43:30.221Z,100780.80
2023-05-01T05:46:01.204Z,100782.60
2023-05-01T05:48:29.453Z,100779.40
2023-05-01T05:50:57.817Z,100780.00
2023-05-01T05:53:26.249Z,100781.40
2023-05-01T05:55:54.557Z,100783.00
2023-05-01T05:58:23.450Z,100779.20
2023-05-01T06:01:01.512Z,100778.40
2023-05-01T06:03:29.523Z,100778.00
2023-05-01T06:06:01.309Z,100780.40
2023-05-01T06:08:29.191Z,100776.60
2023-05-01T06:10:58.980Z,100774.20
2023-05-01T06:13:28.102Z,100776.60
2023-05-01T06:15:56.104Z,100778.40
2023-05-01T06:18:23.977Z,100778.60
2023-05-01T06:20:52.543Z,100773.60
2023-05-01T06:23:20.596Z,100778.00
2023-05-01T06:25:56.413Z,100780.40
2023-05-01T06:28:24.298Z,100778.20
2023-05-01T06:30:52.288Z,100784.00
2023-05-01T06:33:20.842Z,100779.60
2023-05-01T06:35:55.870Z,100778.20
2023-05-01T06:38:25.614Z,100777.20
2023-05-01T06:40:55.223Z,100777.60
2023-05-01T06:43:22.979Z,100780.00
2023-05-01T06:45:51.376Z,100785.00
2023-05-01T06:48:19.548Z,100785.40
2023-05-01T06:50:47.347Z,100784.40
2023-05-01T06:53:16.027Z,100785.20
2023-05-01T06:55:43.865Z,100785.80
2023-05-01T06:58:22.405Z,100780.40
2023-05-01T07:00:51.410Z,100782.80
2023-05-01T07:03:19.369Z,100781.40
2023-05-01T07:05:47.410Z,100784.20
2023-05-01T07:08:15.335Z,100778.40
2023-05-01T07:10:43.723Z,100783.40
2023-05-01T07:13:12.088Z,100779.00
2023-05-01T07:15:39.918Z,100784.40
2023-05-01T07:18:07.969Z,100781.80
2023-05-01T07:20:35.793Z,100788.60
2023-05-01T07:23:05.931Z,100786.00
2023-05-01T07:25:37.738Z,100792.00
2023-05-01T07:28:08.119Z,100794.20
2023-05-01T07:30:37.455Z,100795.20
2023-05-01T07:33:08.060Z,100794.60
2023-05-01T07:35:36.064Z,100794.80
2023-05-01T07:38:04.536Z,100802.00
2023-05-01T07:40:35.959Z,100800.00
2023-05-01T07:43:05.080Z,100802.60
2023-05-01T07:45:32.971Z,100806.00
2023-05-01T07:48:00.871Z,100803.20
2023-05-01T07:50:28.872Z,100805.20
2023-05-01T07:52:57.439Z,100804.40
2023-05-01T07:55:25.716Z,100811.00
2023-05-01T07:57:53.612Z,100814.80
2023-05-01T08:00:21.547Z,100816.00
2023-05-01T08:02:49.442Z,100816.20
2023-05-01T08:05:17.446Z,100823.00
2023-05-01T08:07:45.466Z,100823.20
2023-05-01T08:10:14.570Z,100821.00
2023-05-01T08:12:43.598Z,100820.60
2023-05-01T08:15:11.953Z,100818.00
2023-05-01T08:17:39.779Z,100822.40
2023-05-01T08:20:08.899Z,100818.40
2023-05-01T08:22:36.673Z,100815.00
2023-05-01T08:25:05.923Z,100818.00
2023-05-01T08:27:34.036Z,100819.20
2023-05-01T08:30:01.882Z,100816.20
2023-05-01T08:32:29.835Z,100821.40
2023-05-01T08:34:57.739Z,100814.20
2023-05-01T08:37:25.530Z,100820.80
2023-05-01T08:39:54.590Z,100819.00
2023-05-01T08:42:22.833Z,100816.60
2023-05-01T08:44:54.444Z,100826.60
2023-05-01T08:47:22.789Z,100816.00
2023-05-01T08:49:52.295Z,100820.20
2023-05-01T08:52:22.258Z,100825.80
2023-05-01T08:54:52.473Z,100825.60
2023-05-01T08:57:21.209Z,100817.40
2023-05-01T08:59:51.092Z,100828.80
2023-05-01T09:02:21.642Z,100830.80
2023-05-01T09:04:51.476Z,100836.40
2023-05-01T09:07:19.431Z,100839.80
2023-05-01T09:09:47.209Z,100837.80
2023-05-01T09:12:24.645Z,100842.60
2023-05-01T09:14:54.389Z,100840.80
2023-05-01T09:17:24.018Z,100845.80
2023-05-01T09:19:52.481Z,100853.40
2023-05-01T09:22:21.265Z,100848.80
2023-05-01T09:24:49.381Z,100850.00
2023-05-01T09:27:17.164Z,100847.00
2023-05-01T09:29:47.539Z,100843.60
2023-05-01T09:32:24.806Z,100850.20
2023-05-01T09:34:54.429Z,100846.40
2023-05-01T09:37:33.928Z,100852.60
2023-05-01T09:40:12.626Z,100849.00
2023-05-01T09:42:50.231Z,100849.40
2023-05-01T09:45:20.409Z,100854.00
2023-05-01T09:47:48.690Z,100844.80
2023-05-01T09:50:31.906Z,100853.00
2023-05-01T09:53:06.349Z,100855.60
2023-05-01T09:55:35.152Z,100857.20
2023-05-01T09:58:03.538Z,100856.40
2023-05-01T10:00:31.475Z,100861.20
2023-05-01T10:03:14.896Z,100864.40
2023-05-01T10:05:44.636Z,100861.40
2023-05-01T10:08:15.857Z,100863.40
2023-05-01T10:10:44.162Z,100868.60
2023-05-01T10:13:18.899Z,100856.60
2023-05-01T10:15:46.860Z,100859.00
2023-05-01T10:18:15.497Z,100860.60
2023-05-01T10:20:43.600Z,100861.40
2023-05-01T10:23:12.152Z,100859.00
2023-05-01T10:25:42.358Z,100857.00
2023-05-01T10:28:12.532Z,100855.20
2023-05-01T10:30:41.841Z,100850.20
2023-05-01T10:33:14.305Z,100846.80
2023-05-01T10:35:54.757Z,100850.20
2023-05-01T10:38:35.440Z,100848.20
2023-05-01T10:41:04.022Z,100850.20
2023-05-01T10:43:32.291Z,100851.00
2023-05-01T10:46:21.725Z,100846.60
2023-05-01T10:48:49.655Z,100844.20
2023-05-01T10:51:21.413Z,100847.20
2023-05-01T10:54:13.286Z,100844.40
2023-05-01T10:56:43.381Z,100846.60
2023-05-01T10:59:12.867Z,100850.20
2023-05-01T11:01:45.708Z,100850.20
2023-05-01T11:04:19.524Z,100854.80
2023-05-01T11:07:05.467Z,100855.20
2023-05-01T11:09:44.380Z,100846.80
2023-05-01T11:12:45.048Z,100844.00
2023-05-01T11:15:32.358Z,100838.60
2023-05-01T11:18:03.073Z,100842.80
2023-05-01T11:20:36.962Z,100850.80
2023-05-01T11:23:04.730Z,100850.20
2023-05-01T11:25:33.890Z,100851.20
2023-05-01T11:28:06.507Z,100851.40
2023-05-01T11:30:41.243Z,100841.80
2023-05-01T11:33:11.010Z,100840.00
2023-05-01T11:35:39.343Z,100841.00
2023-05-01T11:38:18.926Z,100844.00
2023-05-01T11:40:55.506Z,100846.20
2023-05-01T11:43:23.533Z,100847.80
2023-05-01T11:46:02.336Z,100860.20
2023-05-01T11:48:31.715Z,100853.80
2023-05-01T11:50:59.670Z,100868.40
2023-05-01T11:53:28.574Z,100858.80
2023-05-01T11:55:56.830Z,100868.20
2023-05-01T11:58:36.560Z,100864.20
2023-05-01T12:01:07.292Z,100862.00
2023-05-01T12:03:43.205Z,100860.60
2023-05-01T12:06:13.388Z,100863.60
2023-05-01T12:08:50.408Z,100870.20
2023-05-01T12:11:21.261Z,100868.00
2023-05-01T12:13:50.351Z,100862.80
2023-05-01T12:16:18.614Z,100865.40
2023-05-01T12:18:47.046Z,100864.00
2023-05-01T12:21:18.010Z,100872.60
2023-05-01T12:23:48.173Z,100869.60
2023-05-01T12:26:25.248Z,100867.60
2023-05-01T12:29:13.994Z,100869.00
2023-05-01T12:31:49.983Z,100874.20
2023-05-01T12:34:18.125Z,100877.60
2023-05-01T12:36:54.938Z,100880.80
2023-05-01T12:39:23.695Z,100874.60
2023-05-01T12:41:52.277Z,100878.00
2023-05-01T12:44:24.587Z,100876.00
2023-05-01T12:46:59.488Z,100877.60
2023-05-01T12:49:36.182Z,100875.80
2023-05-01T12:52:09.106Z,100878.80
2023-05-01T12:54:43.510Z,100875.20
2023-05-01T12:57:14.890Z,100875.00
2023-05-01T12:59:45.454Z,100879.40
2023-05-01T13:02:17.199Z,100880.80
2023-05-01T13:04:47.035Z,100880.20
2023-05-01T13:07:17.741Z,100887.20
2023-05-01T13:09:57.545Z,100888.60
2023-05-01T13:12:27.601Z,100892.60
2023-05-01T13:14:56.300Z,100892.80
2023-05-01T13:17:30.687Z,100894.20
2023-05-01T13:20:04.112Z,100901.40
2023-05-01T13:22:41.721Z,100899.80
2023-05-01T13:25:20.438Z,100899.40
2023-05-01T13:27:53.332Z,100903.40
2023-05-01T13:30:34.144Z,100904.60
2023-05-01T13:33:03.795Z,100902.20
2023-05-01T13:35:31.766Z,100887.80
2023-05-01T13:38:01.334Z,100900.20
2023-05-01T13:40:29.235Z,100905.20
2023-05-01T13:42:57.112Z,100913.00
2023-05-01T13:45:25.909Z,100921.20
2023-05-01T13:47:55.413Z,100914.80
2023-05-01T13:50:23.484Z,100922.00
2023-05-01T13:52:51.265Z,100926.40
2023-05-01T13:55:21.729Z,100931.80
2023-05-01T13:57:49.620Z,100927.80
2023-05-01T14:00:18.121Z,100929.60
2023-05-01T14:02:49.243Z,100935.00
2023-05-01T14:05:26.791Z,100937.20
2023-05-01T14:07:57.851Z,100936.60
2023-05-01T14:10:28.234Z,100935.40
2023-05-01T14:12:58.757Z,100935.00
2023-05-01T14:15:28.815Z,100931.00
2023-05-01T14:17:58.191Z,100938.80
2023-05-01T14:20:26.128Z,100925.80
2023-05-01T14:22:53.932Z,100929.40
2023-05-01T14:25:34.969Z,100938.80
2023-05-01T14:28:09.673Z,100933.20
2023-05-01T14:30:39.433Z,100934.80
2023-05-01T14:33:13.199Z,100933.00
2023-05-01T14:35:52.504Z,100936.00
2023-05-01T14:38:22.325Z,100936.00
2023-05-01T14:40:50.270Z,100942.20
2023-05-01T14:43:22.275Z,100937.20
2023-05-01T14:45:50.652Z,100941.60
2023-05-01T14:48:26.499Z,100942.00
2023-05-01T14:50:55.016Z,100935.80
2023-05-01T14:53:23.357Z,100940.20
2023-05-01T14:55:52.286Z,100937.20
2023-05-01T14:58:20.253Z,100947.60
2023-05-01T15:00:48.130Z,100939.60
2023-05-01T15:03:15.981Z,100937.20
2023-05-01T15:05:46.033Z,100940.40
2023-05-01T15:08:13.815Z,100946.20
2023-05-01T15:10:42.352Z,100942.00
2023-05-01T15:13:10.269Z,100942.20
2023-05-01T15:15:38.101Z,100937.20
2023-05-01T15:18:06.060Z,100935.20
2023-05-01T15:20:33.908Z,100934.40
2023-05-01T15:23:01.878Z,100932.80
2023-05-01T15:25:29.686Z,100934.60
2023-05-01T15:27:57.687Z,100930.40
2023-05-01T15:30:25.570Z,100930.60
2023-05-01T15:32:55.786Z,100924.80
2023-05-01T15:35:24.266Z,100926.60
2023-05-01T15:37:52.735Z,100926.20
2023-05-01T15:40:20.600Z,100924.80
2023-05-01T15:42:48.561Z,100933.20
2023-05-01T15:45:16.583Z,100933.80
2023-05-01T15:47:44.975Z,100931.80
2023-05-01T15:50:13.093Z,100929.40
2023-05-01T15:52:41.021Z,100933.40
2023-05-01T15:55:09.179Z,100937.40
2023-05-01T15:57:37.304Z,100937.00
2023-05-01T16:00:06.585Z,100934.80
2023-05-01T16:02:34.408Z,100938.00
2023-05-01T16:05:02.215Z,100938.00
2023-05-01T16:07:29.992Z,100941.40
2023-05-01T16:09:58.346Z,100944.00
2023-05-01T16:12:30.298Z,100941.40
2023-05-01T16:15:00.928Z,100940.00
2023-05-01T16:17:33.647Z,100944.80
2023-05-01T16:20:02.302Z,100945.80
2023-05-01T16:22:32.746Z,100942.60
2023-05-01T16:25:01.235Z,100949.60
2023-05-01T16:27:29.068Z,100950.20
2023-05-01T16:29:57.246Z,100951.40
2023-05-01T16:32:26.264Z,100950.40
2023-05-01T16:34:54.131Z,100954.80
2023-05-01T16:37:25.475Z,100951.00
2023-05-01T16:39:53.388Z,100957.60
2023-05-01T16:42:21.300Z,100954.20
2023-05-01T16:44:49.473Z,100952.60
2023-05-01T16:47:18.009Z,100952.80
2023-05-01T16:49:46.701Z,100955.00
2023-05-01T16:52:16.425Z,100960.60
2023-05-01T16:54:44.319Z,100961.00
2023-05-01T16:57:12.511Z,100964.40
2023-05-01T16:59:40.601Z,100970.20
2023-05-01T17:02:08.658Z,100974.60
2023-05-01T17:04:36.765Z,100972.40
2023-05-01T17:07:04.658Z,100972.60
2023-05-01T17:09:33.330Z,100972.80
2023-05-01T17:12:03.313Z,100973.40
2023-05-01T17:14:31.115Z,100976.60
2023-05-01T17:16:59.202Z,100979.40
2023-05-01T17:19:26.980Z,100977.00
2023-05-01T17:21:54.792Z,100979.80
2023-05-01T17:24:23.220Z,100975.00
2023-05-01T17:26:51.092Z,100975.80
2023-05-01T17:29:18.904Z,100986.60
2023-05-01T17:31:46.698Z,100986.60
2023-05-01T17:34:14.512Z,100988.40
2023-05-01T17:36:43.014Z,100988.20
2023-05-01T17:39:10.880Z,100987.60
2023-05-01T17:41:38.693Z,100985.40
2023-05-01T17:44:06.977Z,100984.60
2023-05-01T17:46:35.470Z,100987.00
2023-05-01T17:49:03.321Z,100983.20
2023-05-01T17:51:31.054Z,100991.20
2023-05-01T17:54:01.577Z,100997.20
2023-05-01T17:56:29.388Z,101002.20
2023-05-01T17:58:57.364Z,101001.20
2023-05-01T18:01:25.345Z,101000.40
2023-05-01T18:03:54.139Z,101001.40
2023-05-01T18:06:22.160Z,101003.80
2023-05-01T18:08:50.296Z,101009.60
2023-05-01T18:11:18.205Z,101014.80
2023-05-01T18:13:48.077Z,101017.00
2023-05-01T18:16:16.328Z,101019.00
2023-05-01T18:18:44.512Z,101026.00
2023-05-01T18:21:12.789Z,101028.20
2023-05-01T18:23:40.938Z,101026.40
2023-05-01T18:26:08.790Z,101026.80
2023-05-01T18:28:37.003Z,101026.00
2023-05-01T18:31:04.945Z,101031.60
2023-05-01T18:33:33.257Z,101032.00
2023-05-01T18:36:01.157Z,101038.20
2023-05-01T18:38:28.983Z,101037.00
2023-05-01T18:40:56.795Z,101044.80
2023-05-01T18:43:24.567Z,101052.40
2023-05-01T18:45:52.424Z,101054.00
2023-05-01T18:48:20.435Z,101061.20
2023-05-01T18:51:00.874Z,101063.00
2023-05-01T18:53:35.609Z,101065.40
2023-05-01T18:56:05.040Z,101067.40
2023-05-01T18:58:32.798Z,101070.60
2023-05-01T19:01:00.645Z,101069.60
2023-05-01T19:03:28.478Z,101069.40
2023-05-01T19:05:56.277Z,101072.80
2023-05-01T19:08:24.547Z,101077.00
2023-05-01T19:10:53.049Z,101076.60
2023-05-01T19:13:21.030Z,101074.00
2023-05-01T19:15:48.949Z,101080.60
2023-05-01T19:18:16.936Z,101089.20
2023-05-01T19:20:46.027Z,101092.80
2023-05-01T19:23:13.877Z,101089.00
2023-05-01T19:25:43.108Z,101097.80
2023-05-01T19:28:11.909Z,101094.20
2023-05-01T19:30:41.287Z,101105.00
2023-05-01T19:33:09.257Z,101104.00
2023-05-01T19:35:38.378Z,101110.00
2023-05-01T19:38:06.190Z,101111.60
2023-05-01T19:40:33.938Z,101120.60
2023-05-01T19:43:01.836Z,101129.60
2023-05-01T19:45:29.733Z,101140.60
2023-05-01T19:47:57.664Z,101146.60
2023-05-01T19:50:25.459Z,101147.00
2023-05-01T19:52:53.273Z,101147.60
2023-05-01T19:55:21.341Z,101152.00
2023-05-01T19:57:49.163Z,101163.00
2023-05-01T20:00:17.765Z,101168.20
2023-05-01T20:02:46.924Z,101166.20
2023-05-01T20:05:14.885Z,101174.60
2023-05-01T20:07:42.757Z,101173.00
2023-05-01T20:10:11.009Z,101182.60
2023-05-01T20:12:39.101Z,101182.60
2023-05-01T20:15:08.598Z,101196.60
2023-05-01T20:17:36.428Z,101199.00
2023-05-01T20:20:04.703Z,101201.20
2023-05-01T20:22:32.646Z,101210.80
2023-05-01T20:25:00.482Z,101215.60
2023-05-01T20:27:28.278Z,101211.60
2023-05-01T20:29:58.027Z,101221.40
2023-05-01T20:32:26.011Z,101215.20
2023-05-01T20:34:55.364Z,101221.20
2023-05-01T20:37:23.247Z,101223.60
2023-05-01T20:39:51.106Z,101222.40
2023-05-01T20:42:18.837Z,101228.00
2023-05-01T20:44:46.885Z,101227.60
2023-05-01T20:47:14.935Z,101230.20
2023-05-01T20:49:43.088Z,101228.60
2023-05-01T20:52:11.009Z,101237.00
2023-05-01T20:54:38.866Z,101241.00
2023-05-01T20:57:06.678Z,101241.80
2023-05-01T20:59:34.525Z,101248.80
2023-05-01T21:02:05.733Z,101248.00
2023-05-01T21:04:33.810Z,101252.00
2023-05-01T21:07:01.710Z,101248.80
2023-05-01T21:09:29.576Z,101257.80
2023-05-01T21:11:57.385Z,101261.60
2023-05-01T21:14:27.334Z,101264.00
2023-05-01T21:16:55.280Z,101266.00
2023-05-01T21:19:23.134Z,101270.80
2023-05-01T21:21:54.745Z,101272.00
2023-05-01T21:24:25.344Z,101273.20
2023-05-01T21:26:56.200Z,101280.80
2023-05-01T21:29:24.956Z,101289.20
2023-05-01T21:31:52.748Z,101291.60
2023-05-01T21:34:20.627Z,101291.20
2023-05-01T21:36:49.251Z,101295.00
2023-05-01T21:39:17.341Z,101298.40
2023-05-01T21:41:48.766Z,101295.00
2023-05-01T21:44:17.437Z,101295.40
2023-05-01T21:46:45.215Z,101297.60
2023-05-01T21:49:16.901Z,101300.60
2023-05-01T21:51:44.751Z,101301.40
2023-05-01T21:54:12.700Z,101299.60
2023-05-01T21:56:40.675Z,101298.40
2023-05-01T21:59:08.415Z,101303.20
2023-05-01T22:01:40.042Z,101306.80
2023-05-01T22:04:08.557Z,101299.20
2023-05-01T22:06:36.702Z,101304.20
2023-05-01T22:09:04.668Z,101309.20
2023-05-01T22:11:33.198Z,101311.60
2023-05-01T22:14:01.881Z,101313.20
2023-05-01T22:16:29.731Z,101314.00
2023-05-01T22:18:57.561Z,101321.60
2023-05-01T22:21:25.778Z,101322.40
2023-05-01T22:23:53.673Z,101321.40
2023-05-01T22:26:21.618Z,101319.00
2023-05-01T22:28:50.070Z,101322.60
2023-05-01T22:31:17.986Z,101320.40
2023-05-01T22:33:46.326Z,101321.40
2023-05-01T22:36:14.330Z,101322.80
2023-05-01T22:38:42.169Z,101327.40
2023-05-01T22:41:10.096Z,101331.40
2023-05-01T22:43:37.935Z,101332.40
2023-05-01T22:46:05.910Z,101338.00
2023-05-01T22:48:33.862Z,101342.20
2023-05-01T22:51:01.758Z,101341.60
2023-05-01T22:53:31.227Z,101336.40
2023-05-01T22:55:59.215Z,101342.00
2023-05-01T22:58:27.001Z,101346.40
2023-05-01T23:00:54.898Z,101350.20
2023-05-01T23:03:22.896Z,101356.20
2023-05-01T23:05:50.858Z,101352.80
2023-05-01T23:08:18.599Z,101352.80
2023-05-01T23:10:46.534Z,101350.00
2023-05-01T23:13:22.692Z,101356.80
2023-05-01T23:15:50.732Z,101357.40
2023-05-01T23:18:36.465Z,101365.20
2023-05-01T23:21:04.998Z,101365.80
2023-05-01T23:23:35.565Z,101375.20
2023-05-01T23:26:03.379Z,101373.80
2023-05-01T23:28:31.257Z,101373.60
2023-05-01T23:31:03.413Z,101372.40
2023-05-01T23:33:39.728Z,101375.60
2023-05-01T23:36:12.349Z,101378.00
2023-05-01T23:38:40.454Z,101375.60
2023-05-01T23:41:08.967Z,101377.60
2023-05-01T23:43:38.646Z,101378.60
2023-05-01T23:46:07.591Z,101376.00
2023-05-01T23:48:36.229Z,101382.20
2023-05-01T23:51:04.753Z,101378.40
2023-05-01T23:53:32.794Z,101386.20
2023-05-01T23:56:00.597Z,101391.20
2023-05-01T23:58:28.663Z,101392.40
